Time;durP1;ratioP1;P1;durP2;ratioP2;P2;SDS_P1;SDS_P2;PMS_P1;PMS_P2;Temp;Humidity;BMP_temperature;BMP_pressure;BME280_temperature;BME280_humidity;BME280_pressure;Samples;Min_cycle;Max_cycle;Signal;HPM_P1;HPM_P2
2021/11/10 00:02:21;;;;;;;12.40;4.77;;;4.40;99.90;;;;;;5011585;28;20481;-82
2021/11/10 00:04:49;;;;;;;10.03;4.07;;;4.40;99.90;;;;;;5012256;28;20669;-82
2021/11/10 00:07:16;;;;;;;10.60;4.03;;;4.40;99.90;;;;;;5012504;28;20487;-82
2021/11/10 00:09:43;;;;;;;9.40;4.30;;;4.40;99.90;;;;;;5012477;28;20454;-82
2021/11/10 00:12:10;;;;;;;10.60;3.80;;;4.40;99.90;;;;;;5010832;28;20463;-82
2021/11/10 00:14:37;;;;;;;10.83;3.80;;;4.40;99.90;;;;;;5011652;28;20460;-82
2021/11/10 00:17:04;;;;;;;10.13;3.70;;;4.40;99.90;;;;;;5010487;28;20461;-82
2021/11/10 00:19:31;;;;;;;8.87;4.20;;;4.30;99.90;;;;;;5011296;28;20459;-82
2021/11/10 00:22:00;;;;;;;9.43;3.80;;;4.30;99.90;;;;;;5010001;28;20458;-82
2021/11/10 00:24:26;;;;;;;9.63;3.80;;;4.30;99.90;;;;;;5011569;28;20456;-81
2021/11/10 00:26:53;;;;;;;9.13;3.70;;;4.20;99.90;;;;;;5009395;28;20479;-82
2021/11/10 00:29:20;;;;;;;11.80;5.23;;;4.20;99.90;;;;;;5012347;28;20539;-81
2021/11/10 00:31:47;;;;;;;9.23;3.77;;;4.20;99.90;;;;;;5010090;28;20458;-83
2021/11/10 00:34:14;;;;;;;7.83;3.60;;;4.20;99.90;;;;;;5006402;28;20469;-82
2021/11/10 00:36:41;;;;;;;7.00;3.23;;;4.20;99.90;;;;;;5007741;28;20462;-82
2021/11/10 00:39:09;;;;;;;8.93;3.47;;;4.20;99.90;;;;;;5008249;28;20845;-83
2021/11/10 00:41:36;;;;;;;13.87;3.77;;;4.20;99.90;;;;;;5003924;28;20476;-82
2021/11/10 00:44:02;;;;;;;11.43;3.90;;;4.20;99.90;;;;;;5007498;28;20543;-82
2021/11/10 00:46:31;;;;;;;9.43;4.10;;;4.10;99.90;;;;;;5004894;28;20490;-82
2021/11/10 00:48:58;;;;;;;8.20;3.90;;;4.10;99.90;;;;;;5007942;28;20471;-83
2021/11/10 00:51:24;;;;;;;10.30;3.57;;;4.10;99.90;;;;;;5010961;28;20463;-82
2021/11/10 00:53:51;;;;;;;7.60;4.17;;;4.00;99.90;;;;;;5013002;28;20523;-82
2021/11/10 00:56:19;;;;;;;12.23;4.33;;;4.10;99.90;;;;;;5013314;28;20471;-82
2021/11/10 00:58:46;;;;;;;8.63;2.87;;;4.00;99.90;;;;;;5008180;28;20478;-82
2021/11/10 01:01:13;;;;;;;8.77;3.50;;;4.00;99.90;;;;;;5008914;28;20454;-83
2021/11/10 01:03:40;;;;;;;9.47;4.07;;;4.00;99.90;;;;;;5014096;28;20965;-83
2021/11/10 01:06:07;;;;;;;10.80;4.03;;;4.00;99.90;;;;;;5014212;28;20454;-83
2021/11/10 01:08:34;;;;;;;9.30;3.27;;;3.90;99.90;;;;;;5014709;28;20500;-82
2021/11/10 01:11:01;;;;;;;7.83;4.00;;;3.90;99.90;;;;;;5014895;28;20458;-82
2021/11/10 01:13:29;;;;;;;8.10;4.00;;;3.90;99.90;;;;;;5015162;28;20464;-82
2021/11/10 01:15:56;;;;;;;8.20;4.13;;;3.90;99.90;;;;;;5014919;28;20456;-82
2021/11/10 01:18:23;;;;;;;9.17;3.73;;;3.90;99.90;;;;;;5015276;28;20470;-79
2021/11/10 01:20:50;;;;;;;8.73;3.60;;;3.90;99.90;;;;;;5014494;28;20504;-81
2021/11/10 01:23:17;;;;;;;10.73;3.17;;;3.90;99.90;;;;;;5015101;28;20949;-81
2021/11/10 01:25:43;;;;;;;10.50;3.23;;;3.80;99.90;;;;;;5013788;28;20834;-81
2021/11/10 01:28:11;;;;;;;9.27;4.00;;;3.80;99.90;;;;;;5012731;28;20494;-81
2021/11/10 01:30:40;;;;;;;8.40;3.60;;;3.80;99.90;;;;;;5013691;28;20451;-82
2021/11/10 01:33:07;;;;;;;8.47;3.63;;;3.80;99.90;;;;;;5014955;28;20471;-82
2021/11/10 01:35:35;;;;;;;9.00;4.10;;;3.80;99.90;;;;;;5014736;28;20467;-82
2021/11/10 01:38:01;;;;;;;8.03;3.43;;;3.70;99.90;;;;;;5013897;28;20491;-82
2021/11/10 01:40:29;;;;;;;8.90;3.97;;;3.70;99.90;;;;;;5012456;28;20461;-82
2021/11/10 01:43:05;;;;;;;10.63;4.00;;;3.70;99.90;;;;;;5014847;28;20455;-82
2021/11/10 01:45:33;;;;;;;8.20;3.70;;;3.60;99.90;;;;;;5014581;28;20451;-81
2021/11/10 01:48:01;;;;;;;7.30;3.43;;;3.70;99.90;;;;;;5015363;28;20491;-82
2021/11/10 01:50:28;;;;;;;9.60;3.93;;;3.70;99.90;;;;;;5012589;28;20454;-82
2021/11/10 01:52:55;;;;;;;7.90;3.30;;;3.70;99.90;;;;;;5014540;28;20466;-82
2021/11/10 01:55:22;;;;;;;7.53;3.13;;;3.60;99.90;;;;;;5014285;28;20451;-82
2021/11/10 01:57:49;;;;;;;7.97;3.27;;;3.60;99.90;;;;;;5014915;28;20465;-82
2021/11/10 02:00:19;;;;;;;9.87;3.37;;;3.60;99.90;;;;;;5013965;28;20468;-82
2021/11/10 02:02:46;;;;;;;10.77;4.43;;;3.60;99.90;;;;;;5003716;28;20515;-82
2021/11/10 02:05:16;;;;;;;9.63;3.57;;;3.60;99.90;;;;;;5015825;28;20454;-84
2021/11/10 02:07:44;;;;;;;10.90;3.43;;;3.60;99.90;;;;;;5014667;28;20491;-86
2021/11/10 02:10:13;;;;;;;7.47;3.30;;;3.50;99.90;;;;;;5014996;28;20458;-83
2021/11/10 02:12:41;;;;;;;9.43;4.07;;;3.50;99.90;;;;;;5015016;28;20593;-82
2021/11/10 02:15:10;;;;;;;6.67;3.80;;;3.50;99.90;;;;;;5014202;28;20450;-83
2021/11/10 02:17:37;;;;;;;8.70;2.80;;;3.50;99.90;;;;;;5015121;28;20469;-83
2021/11/10 02:20:06;;;;;;;7.27;3.50;;;3.50;99.90;;;;;;5015327;28;20462;-83
2021/11/10 02:22:36;;;;;;;9.20;3.50;;;3.50;99.90;;;;;;5014983;28;20809;-83
2021/11/10 02:25:04;;;;;;;6.90;2.90;;;3.40;99.90;;;;;;5014030;28;20442;-83
2021/11/10 02:27:34;;;;;;;7.03;3.37;;;3.40;99.90;;;;;;5014202;28;20525;-82
2021/11/10 02:30:02;;;;;;;8.27;3.40;;;3.40;99.90;;;;;;5014003;28;20459;-82
2021/11/10 02:32:30;;;;;;;6.87;3.17;;;3.40;99.90;;;;;;5014203;28;20493;-83
2021/11/10 02:34:57;;;;;;;8.60;3.43;;;3.40;99.90;;;;;;5010786;28;20451;-82
2021/11/10 02:37:24;;;;;;;7.10;3.83;;;3.40;99.90;;;;;;5014783;28;20469;-82
2021/11/10 02:39:53;;;;;;;9.83;4.27;;;3.40;99.90;;;;;;5015085;28;20461;-83
2021/11/10 02:42:21;;;;;;;7.97;4.03;;;3.30;99.90;;;;;;5014759;28;20456;-82
2021/11/10 02:44:49;;;;;;;8.23;3.70;;;3.30;99.90;;;;;;5015286;28;20461;-82
2021/11/10 02:47:17;;;;;;;8.60;3.60;;;3.30;99.90;;;;;;5015527;28;20513;-83
2021/11/10 02:49:44;;;;;;;7.23;3.10;;;3.30;99.90;;;;;;5015247;28;20461;-82
2021/11/10 02:52:13;;;;;;;9.20;3.47;;;3.30;99.90;;;;;;5012520;28;20454;-83
2021/11/10 02:54:44;;;;;;;7.77;3.60;;;3.30;99.90;;;;;;5014686;28;20457;-83
2021/11/10 02:57:13;;;;;;;8.50;3.43;;;3.30;99.90;;;;;;5014848;28;20556;-83
2021/11/10 02:59:41;;;;;;;7.43;3.37;;;3.30;99.90;;;;;;5014165;28;20880;-82
2021/11/10 03:02:08;;;;;;;10.53;3.90;;;3.20;99.90;;;;;;5014070;28;20446;-82
2021/11/10 03:04:37;;;;;;;7.27;3.40;;;3.20;99.90;;;;;;5015410;28;20461;-83
2021/11/10 03:07:06;;;;;;;9.93;3.70;;;3.20;99.90;;;;;;5016971;28;20458;-83
2021/11/10 03:09:34;;;;;;;8.33;3.70;;;3.20;99.90;;;;;;5013807;28;20450;-81
2021/11/10 03:12:03;;;;;;;8.13;3.30;;;3.20;99.90;;;;;;5013098;28;20458;-81
2021/11/10 03:14:33;;;;;;;7.27;3.40;;;3.10;99.90;;;;;;5013276;28;20462;-81
2021/11/10 03:17:03;;;;;;;8.00;3.03;;;3.10;99.90;;;;;;5014057;28;20461;-81
2021/11/10 03:19:30;;;;;;;10.50;3.90;;;3.10;99.90;;;;;;5012362;28;20464;-82
2021/11/10 03:21:57;;;;;;;8.00;3.73;;;3.20;99.90;;;;;;5013852;28;20823;-82
2021/11/10 03:24:23;;;;;;;7.17;2.87;;;3.10;99.90;;;;;;5011249;28;20463;-82
2021/11/10 03:26:50;;;;;;;7.90;3.63;;;3.10;99.90;;;;;;5013040;28;20965;-82
2021/11/10 03:29:17;;;;;;;8.23;3.50;;;3.10;99.90;;;;;;5012020;28;20497;-82
2021/11/10 03:31:46;;;;;;;7.00;3.50;;;3.10;99.90;;;;;;5011641;28;20465;-82
2021/11/10 03:34:13;;;;;;;6.50;2.73;;;3.10;99.90;;;;;;5012871;28;20526;-82
2021/11/10 03:36:40;;;;;;;6.47;2.90;;;3.10;99.90;;;;;;5013154;28;20454;-82
2021/11/10 03:39:13;;;;;;;7.20;3.57;;;3.10;99.90;;;;;;5012636;28;20465;-82
2021/11/10 03:41:40;;;;;;;8.70;3.70;;;3.10;99.90;;;;;;5012087;28;20454;-82
2021/11/10 03:44:08;;;;;;;7.73;3.13;;;3.10;99.90;;;;;;5008545;28;20458;-82
2021/11/10 03:46:37;;;;;;;9.60;3.33;;;3.10;99.90;;;;;;5012206;28;20454;-82
2021/11/10 03:49:05;;;;;;;10.83;4.00;;;3.10;99.90;;;;;;5012319;28;20492;-82
2021/11/10 03:51:32;;;;;;;10.47;3.80;;;3.00;99.90;;;;;;5011819;28;20462;-82
2021/11/10 03:53:59;;;;;;;15.30;3.83;;;3.00;99.90;;;;;;5021386;28;20509;-80
2021/11/10 03:56:27;;;;;;;10.73;3.67;;;3.00;99.90;;;;;;5025625;28;20489;-81
2021/11/10 03:58:54;;;;;;;7.50;3.80;;;3.00;99.90;;;;;;5025755;28;20466;-81
2021/11/10 04:01:21;;;;;;;8.60;4.57;;;3.00;99.90;;;;;;5024144;28;20446;-81
2021/11/10 04:03:48;;;;;;;8.37;3.77;;;3.00;99.90;;;;;;5024500;28;20485;-80
2021/11/10 04:06:17;;;;;;;8.70;4.30;;;3.00;99.90;;;;;;5016249;28;20518;-81
2021/11/10 04:08:44;;;;;;;9.43;4.20;;;3.00;99.90;;;;;;5013782;28;20492;-81
2021/11/10 04:11:10;;;;;;;8.27;3.50;;;3.00;99.90;;;;;;5011459;28;20459;-81
2021/11/10 04:13:37;;;;;;;8.57;5.00;;;3.00;99.90;;;;;;5011809;28;20454;-81
2021/11/10 04:16:05;;;;;;;9.93;4.20;;;2.90;99.90;;;;;;5012093;28;20542;-81
2021/11/10 04:18:35;;;;;;;6.07;2.10;;;3.00;99.90;;;;;;5017902;28;20480;-80
2021/11/10 04:21:03;;;;;;;7.20;4.13;;;6.40;99.90;;;;;;5017177;28;20807;-80
2021/11/10 04:23:33;;;;;;;7.83;3.57;;;7.40;99.90;;;;;;5016166;28;20461;-79
2021/11/10 04:26:04;;;;;;;7.73;4.03;;;7.70;99.90;;;;;;5016868;28;20472;-80
2021/11/10 04:28:31;;;;;;;6.90;3.90;;;7.20;99.90;;;;;;5015528;28;20497;-81
2021/11/10 04:30:57;;;;;;;9.70;3.53;;;6.50;99.90;;;;;;5013660;28;20453;-80
2021/11/10 04:33:24;;;;;;;8.00;3.43;;;5.90;99.90;;;;;;5012516;28;20458;-80
2021/11/10 04:35:51;;;;;;;8.07;3.40;;;5.50;99.90;;;;;;5013483;28;20445;-82
2021/11/10 04:38:18;;;;;;;8.93;3.90;;;5.10;99.90;;;;;;5011236;28;21010;-82
2021/11/10 04:40:47;;;;;;;7.40;3.53;;;4.80;99.90;;;;;;5013562;28;20455;-82
2021/11/10 04:43:14;;;;;;;7.03;3.03;;;4.50;99.90;;;;;;5017413;28;20543;-82
2021/11/10 04:45:42;;;;;;;7.47;3.47;;;4.30;99.90;;;;;;5014434;28;20468;-82
2021/11/10 04:48:09;;;;;;;7.97;3.40;;;4.10;99.90;;;;;;5015833;28;20488;-82
2021/11/10 04:50:37;;;;;;;7.20;3.53;;;4.00;99.90;;;;;;5022627;28;20454;-82
2021/11/10 04:53:05;;;;;;;8.90;3.73;;;3.90;99.90;;;;;;5028716;28;20460;-82
2021/11/10 04:55:32;;;;;;;8.50;3.87;;;3.80;99.90;;;;;;5014155;28;20452;-82
2021/11/10 04:58:00;;;;;;;9.50;3.47;;;3.70;99.90;;;;;;5012990;28;20465;-82
2021/11/10 05:00:27;;;;;;;11.43;4.33;;;3.60;99.90;;;;;;5023159;28;20468;-82
2021/11/10 05:02:54;;;;;;;9.93;4.47;;;3.50;99.90;;;;;;5026204;28;20446;-82
2021/11/10 05:05:24;;;;;;;11.37;4.50;;;3.40;99.90;;;;;;5013465;28;20454;-82
2021/11/10 05:07:51;;;;;;;9.17;4.07;;;3.40;99.90;;;;;;5014567;28;20497;-83
2021/11/10 05:10:22;;;;;;;12.93;4.30;;;3.30;99.90;;;;;;5021102;28;20847;-82
2021/11/10 05:12:48;;;;;;;9.43;4.33;;;3.30;99.90;;;;;;5020198;28;20958;-82
2021/11/10 05:15:17;;;;;;;11.63;4.40;;;3.30;99.90;;;;;;5018090;28;20452;-83
2021/11/10 05:17:43;;;;;;;9.60;4.40;;;3.20;99.90;;;;;;5019706;28;20473;-82
2021/11/10 05:20:11;;;;;;;10.00;4.53;;;3.20;99.90;;;;;;5022811;28;20533;-82
2021/11/10 05:22:38;;;;;;;8.87;3.77;;;3.10;99.90;;;;;;5018975;28;20459;-82
2021/11/10 05:25:06;;;;;;;8.40;4.13;;;3.10;99.90;;;;;;5019362;28;20770;-83
2021/11/10 05:27:33;;;;;;;11.23;5.10;;;3.10;99.90;;;;;;5019568;28;20477;-83
2021/11/10 05:30:00;;;;;;;8.90;3.97;;;3.00;99.90;;;;;;5019299;28;21128;-82
2021/11/10 05:32:28;;;;;;;10.70;5.10;;;3.00;99.90;;;;;;5007041;28;20448;-82
2021/11/10 05:34:58;;;;;;;9.70;4.23;;;3.00;99.90;;;;;;5018763;28;20458;-82
2021/11/10 05:37:25;;;;;;;9.20;4.63;;;3.00;99.90;;;;;;5017154;28;20474;-82
2021/11/10 05:39:52;;;;;;;9.27;4.30;;;2.90;99.90;;;;;;5018066;28;20750;-81
2021/11/10 05:42:19;;;;;;;8.50;4.67;;;2.90;99.90;;;;;;5016888;28;20454;-82
2021/11/10 05:44:46;;;;;;;10.27;4.97;;;2.90;99.90;;;;;;5020413;28;20526;-82
2021/11/10 05:47:13;;;;;;;8.50;4.43;;;2.90;99.90;;;;;;5025609;28;20500;-82
2021/11/10 05:49:41;;;;;;;9.43;4.60;;;2.90;99.90;;;;;;5025718;28;20487;-82
2021/11/10 05:52:09;;;;;;;8.70;5.03;;;2.90;99.90;;;;;;5025584;28;20420;-82
2021/11/10 05:54:37;;;;;;;13.40;5.40;;;2.90;99.90;;;;;;5026663;28;20446;-82
2021/11/10 05:57:05;;;;;;;9.60;4.30;;;2.90;99.90;;;;;;5027445;28;20455;-82
2021/11/10 05:59:33;;;;;;;11.10;4.73;;;2.90;99.90;;;;;;5025414;28;20437;-81
2021/11/10 06:02:00;;;;;;;10.87;4.97;;;2.90;99.90;;;;;;5021447;28;20484;-82
2021/11/10 06:04:27;;;;;;;8.10;4.47;;;2.90;99.90;;;;;;5025544;28;20455;-82
2021/11/10 06:07:01;;;;;;;13.27;4.67;;;2.90;99.90;;;;;;5025156;28;20438;-82
2021/11/10 06:09:28;;;;;;;9.13;5.07;;;2.90;99.90;;;;;;5024785;28;20482;-81
2021/11/10 06:11:55;;;;;;;10.57;4.40;;;2.90;99.90;;;;;;5026612;28;20450;-82
2021/11/10 06:14:24;;;;;;;12.10;5.33;;;2.90;99.90;;;;;;5023669;28;20454;-83
2021/11/10 06:19:16;;;;;;;8.73;4.33;;;2.80;99.90;;;;;;5128683;22;20485;-81
2021/11/10 06:21:45;;;;;;;11.60;5.27;;;2.80;99.90;;;;;;5128229;27;20658;-84
2021/11/10 06:24:14;;;;;;;10.97;5.43;;;2.90;99.90;;;;;;5124851;27;20445;-82
2021/11/10 06:26:41;;;;;;;14.30;4.97;;;2.90;99.90;;;;;;5128132;27;20449;-81
2021/11/10 06:29:08;;;;;;;10.07;5.40;;;2.90;99.90;;;;;;5127861;27;20483;-82
2021/11/10 06:31:40;;;;;;;9.57;5.27;;;2.90;99.90;;;;;;5129673;27;20482;-81
2021/11/10 06:34:07;;;;;;;17.20;6.53;;;2.80;99.90;;;;;;5128499;27;20452;-83
2021/11/10 06:36:36;;;;;;;9.33;5.20;;;2.80;99.90;;;;;;5128334;27;20448;-82
2021/11/10 06:39:03;;;;;;;10.67;5.40;;;2.80;99.90;;;;;;5127394;27;20765;-81
2021/11/10 06:41:31;;;;;;;9.70;5.47;;;2.80;99.90;;;;;;5127712;27;20446;-81
2021/11/10 06:43:58;;;;;;;9.50;5.60;;;2.90;99.90;;;;;;5127524;27;20445;-81
2021/11/10 06:46:25;;;;;;;13.00;6.70;;;2.90;99.90;;;;;;5126179;27;20440;-82
2021/11/10 06:48:52;;;;;;;11.50;5.00;;;2.90;99.90;;;;;;5130459;27;20506;-81
2021/11/10 06:51:19;;;;;;;19.13;6.07;;;2.90;99.90;;;;;;5128069;27;20444;-81
2021/11/10 06:53:46;;;;;;;8.90;5.13;;;2.90;99.90;;;;;;5136187;27;20544;-81
2021/11/10 06:56:13;;;;;;;13.83;5.47;;;3.00;99.90;;;;;;5132924;27;20440;-82
2021/11/10 06:58:41;;;;;;;10.07;5.53;;;3.00;99.90;;;;;;5137540;27;21022;-81
2021/11/10 07:01:08;;;;;;;10.00;5.33;;;3.00;99.90;;;;;;5138980;27;20983;-81
2021/11/10 07:03:35;;;;;;;12.83;5.67;;;3.10;99.90;;;;;;5135427;27;20825;-81
2021/11/10 07:06:02;;;;;;;11.20;5.00;;;3.10;99.90;;;;;;5133196;27;20450;-83
2021/11/10 07:08:29;;;;;;;13.60;5.33;;;3.10;99.90;;;;;;5138921;27;20869;-81
2021/11/10 07:10:56;;;;;;;11.60;5.60;;;3.10;99.90;;;;;;5129211;27;20451;-82
2021/11/10 07:13:23;;;;;;;12.07;5.77;;;3.20;99.90;;;;;;5128320;27;20445;-81
2021/11/10 07:15:51;;;;;;;12.80;6.10;;;3.20;99.90;;;;;;5121978;27;21154;-81
2021/11/10 07:18:18;;;;;;;12.53;6.40;;;3.20;99.90;;;;;;5140794;27;20481;-82
2021/11/10 07:20:45;;;;;;;11.57;5.03;;;3.20;99.90;;;;;;5139675;27;20427;-81
2021/11/10 07:23:11;;;;;;;14.83;6.27;;;3.20;99.90;;;;;;5119864;28;20532;-81
2021/11/10 07:25:38;;;;;;;15.00;6.50;;;3.20;99.90;;;;;;5134965;27;20453;-82
2021/11/10 07:28:05;;;;;;;15.43;5.90;;;3.20;99.90;;;;;;5140498;27;20473;-82
2021/11/10 07:30:32;;;;;;;17.73;6.33;;;3.20;99.90;;;;;;5123995;27;20496;-82
2021/11/10 07:33:01;;;;;;;12.53;5.83;;;3.20;99.90;;;;;;5139426;27;20984;-81
2021/11/10 07:35:28;;;;;;;11.80;6.17;;;3.30;99.90;;;;;;5138753;27;20444;-82
2021/11/10 07:37:55;;;;;;;15.30;6.93;;;3.20;99.90;;;;;;5131939;27;20472;-81
2021/11/10 07:40:24;;;;;;;17.03;6.93;;;3.30;99.90;;;;;;5136471;27;20454;-81
2021/11/10 07:42:51;;;;;;;13.67;6.30;;;3.30;99.90;;;;;;5130289;27;20460;-82
2021/11/10 07:45:20;;;;;;;15.27;7.57;;;3.40;99.90;;;;;;5125261;27;20544;-82
2021/11/10 07:47:47;;;;;;;17.43;6.20;;;3.40;99.90;;;;;;5129860;27;20472;-82
2021/11/10 07:50:18;;;;;;;14.43;7.37;;;3.50;99.90;;;;;;5127132;27;20476;-82
2021/11/10 07:52:46;;;;;;;13.93;6.70;;;3.50;99.90;;;;;;5127067;27;21004;-82
2021/11/10 07:55:13;;;;;;;14.27;7.30;;;3.60;99.90;;;;;;5121011;28;20456;-82
2021/11/10 07:57:41;;;;;;;20.60;6.60;;;3.60;99.90;;;;;;5121007;28;20468;-82
2021/11/10 08:00:10;;;;;;;16.30;6.77;;;3.70;99.90;;;;;;5127978;28;20446;-82
2021/11/10 08:02:37;;;;;;;17.80;6.67;;;3.70;99.90;;;;;;5127814;28;20834;-81
2021/11/10 08:05:05;;;;;;;17.00;6.90;;;3.80;99.90;;;;;;5119246;28;20443;-81
2021/11/10 08:07:33;;;;;;;21.63;8.50;;;3.90;99.90;;;;;;5137687;28;20471;-81
2021/11/10 08:10:00;;;;;;;15.30;7.07;;;4.00;99.90;;;;;;5133105;28;20523;-81
2021/11/10 08:12:27;;;;;;;13.23;6.43;;;4.00;99.90;;;;;;5123160;28;20447;-82
2021/11/10 08:14:54;;;;;;;14.30;6.90;;;4.20;99.90;;;;;;5119918;27;20452;-82
2021/11/10 08:17:21;;;;;;;11.87;5.90;;;4.30;99.90;;;;;;5131671;27;20484;-82
2021/11/10 08:19:47;;;;;;;14.30;7.33;;;4.40;99.90;;;;;;5132267;27;20437;-83
2021/11/10 08:22:14;;;;;;;16.43;7.20;;;4.60;99.90;;;;;;5132363;27;20452;-83
2021/11/10 08:24:45;;;;;;;15.10;6.67;;;4.70;99.90;;;;;;5133849;27;20444;-83
2021/11/10 08:27:12;;;;;;;10.47;6.00;;;4.80;99.90;;;;;;5133248;27;21001;-81
2021/11/10 08:29:39;;;;;;;15.27;6.90;;;4.90;99.90;;;;;;5130279;27;20545;-83
2021/11/10 08:32:06;;;;;;;12.10;6.63;;;5.00;99.90;;;;;;5134739;27;20461;-83
2021/11/10 08:34:33;;;;;;;16.93;7.90;;;5.10;99.90;;;;;;5138190;27;20486;-82
2021/11/10 08:37:00;;;;;;;14.30;6.90;;;5.20;99.90;;;;;;5131938;27;20457;-83
2021/11/10 08:39:27;;;;;;;13.30;7.07;;;5.40;99.90;;;;;;5132945;27;20523;-83
2021/11/10 08:41:55;;;;;;;14.18;7.55;;;5.50;99.90;;;;;;5126723;27;20475;-83
2021/11/10 08:44:22;;;;;;;15.17;7.13;;;5.70;99.90;;;;;;5130983;27;20211;-82
2021/11/10 08:46:49;;;;;;;14.00;6.60;;;5.90;99.90;;;;;;5140832;27;20480;-82
2021/11/10 08:49:15;;;;;;;12.40;6.07;;;6.10;99.90;;;;;;5126199;27;20475;-83
2021/11/10 08:51:42;;;;;;;13.37;6.70;;;6.30;99.90;;;;;;5129351;27;20449;-83
2021/11/10 08:54:09;;;;;;;12.33;5.87;;;6.40;99.90;;;;;;5135801;27;20448;-84
2021/11/10 08:56:36;;;;;;;12.57;6.33;;;6.50;99.90;;;;;;5142369;27;20846;-82
2021/11/10 08:59:05;;;;;;;10.33;5.50;;;6.60;99.90;;;;;;5129300;27;20570;-82
2021/11/10 09:01:34;;;;;;;18.17;6.97;;;6.70;99.90;;;;;;5132118;27;20465;-83
2021/11/10 09:04:01;;;;;;;10.57;6.30;;;6.80;99.90;;;;;;5141013;27;20500;-82
2021/11/10 09:06:28;;;;;;;12.57;6.13;;;6.90;99.90;;;;;;5141174;27;20451;-80
2021/11/10 09:08:55;;;;;;;12.33;6.80;;;7.00;99.90;;;;;;5140879;27;20457;-80
2021/11/10 09:11:24;;;;;;;12.97;6.83;;;7.20;99.90;;;;;;5139258;27;20449;-80
2021/11/10 09:13:51;;;;;;;12.53;7.93;;;7.30;99.90;;;;;;5138850;27;20462;-82
2021/11/10 09:16:22;;;;;;;14.17;5.70;;;7.40;99.90;;;;;;5134343;27;20453;-78
2021/11/10 09:18:49;;;;;;;14.60;6.87;;;7.60;99.90;;;;;;5129331;27;20563;-81
2021/11/10 09:21:16;;;;;;;17.43;8.70;;;7.80;99.90;;;;;;5128147;27;20968;-80
2021/11/10 09:23:45;;;;;;;11.80;7.17;;;8.00;99.90;;;;;;5145523;27;20514;-81
2021/11/10 09:26:12;;;;;;;12.47;6.97;;;8.20;99.90;;;;;;5131377;27;20446;-80
2021/11/10 09:28:39;;;;;;;14.13;6.40;;;8.30;99.90;;;;;;5132107;27;20476;-80
2021/11/10 09:31:06;;;;;;;15.20;7.80;;;8.50;99.90;;;;;;5132372;27;20485;-82
2021/11/10 09:33:39;;;;;;;13.47;6.63;;;8.70;99.90;;;;;;5128244;27;20434;-81
2021/11/10 09:36:06;;;;;;;14.53;6.90;;;8.90;99.90;;;;;;5131842;27;20498;-80
2021/11/10 09:38:33;;;;;;;16.07;7.07;;;9.10;99.90;;;;;;5144108;27;20464;-80
2021/11/10 09:41:01;;;;;;;14.17;6.77;;;9.30;99.90;;;;;;5144661;27;20438;-80
2021/11/10 09:43:32;;;;;;;12.13;6.43;;;9.40;99.90;;;;;;5146657;27;20445;-80
2021/11/10 09:46:00;;;;;;;12.10;5.67;;;9.60;99.90;;;;;;5137533;27;20486;-82
2021/11/10 09:48:27;;;;;;;12.80;6.30;;;9.90;99.90;;;;;;5134498;27;21058;-81
2021/11/10 09:50:56;;;;;;;13.37;6.50;;;9.90;99.90;;;;;;5136290;27;20476;-80
2021/11/10 09:53:24;;;;;;;12.20;6.27;;;10.20;99.90;;;;;;5138707;27;20462;-81
2021/11/10 09:55:52;;;;;;;14.70;7.40;;;10.30;99.90;;;;;;5142822;27;20469;-81
2021/11/10 09:58:19;;;;;;;14.17;6.60;;;10.60;99.90;;;;;;5133484;27;20876;-80
2021/11/10 10:00:50;;;;;;;13.67;6.20;;;10.80;99.90;;;;;;5134002;27;20449;-80
2021/11/10 10:03:17;;;;;;;14.23;6.30;;;11.00;99.90;;;;;;5135699;27;20855;-81
2021/11/10 10:05:45;;;;;;;16.87;7.03;;;11.20;99.90;;;;;;5132102;27;20539;-81
2021/11/10 10:08:15;;;;;;;12.50;6.23;;;11.50;99.90;;;;;;5128586;27;20480;-82
2021/11/10 10:10:42;;;;;;;17.57;6.90;;;11.70;99.90;;;;;;5136112;27;20856;-81
2021/11/10 10:13:09;;;;;;;15.40;7.30;;;11.90;99.90;;;;;;5128513;27;20460;-81
2021/11/10 10:15:37;;;;;;;15.63;6.77;;;11.90;99.90;;;;;;5131218;27;21148;-81
2021/11/10 10:18:12;;;;;;;16.30;6.60;;;12.10;99.90;;;;;;5127265;27;20493;-82
2021/11/10 10:20:41;;;;;;;17.17;6.87;;;12.20;99.90;;;;;;5133611;27;20443;-82
2021/11/10 10:23:10;;;;;;;10.97;5.77;;;12.20;99.90;;;;;;5129210;27;21042;-81
2021/11/10 10:25:44;;;;;;;15.20;6.77;;;12.30;99.90;;;;;;5136122;27;20865;-81
2021/11/10 10:28:14;;;;;;;14.90;6.23;;;12.50;99.90;;;;;;5128082;27;20908;-81
2021/11/10 10:30:43;;;;;;;15.43;5.80;;;12.30;99.90;;;;;;5132635;27;20924;-81
2021/11/10 10:33:13;;;;;;;16.13;6.10;;;12.40;99.90;;;;;;5131651;27;20443;-80
2021/11/10 10:35:43;;;;;;;14.80;6.37;;;12.50;99.90;;;;;;5135949;27;20456;-81
2021/11/10 10:38:12;;;;;;;14.50;7.00;;;12.60;99.90;;;;;;5127798;27;20472;-80
2021/11/10 10:40:42;;;;;;;15.20;7.00;;;12.70;99.90;;;;;;5130700;27;20454;-80
2021/11/10 10:43:09;;;;;;;19.73;7.63;;;12.40;99.90;;;;;;5123475;27;20443;-81
2021/11/10 10:45:40;;;;;;;17.00;7.63;;;12.30;99.90;;;;;;5124722;27;20449;-82
2021/11/10 10:48:09;;;;;;;13.43;7.17;;;12.10;99.90;;;;;;5134331;27;20457;-81
2021/11/10 10:50:45;;;;;;;14.47;6.47;;;12.20;99.90;;;;;;5132049;27;20510;-79
2021/11/10 10:53:13;;;;;;;19.63;7.30;;;12.20;99.90;;;;;;5131933;27;20451;-78
2021/11/10 10:55:45;;;;;;;14.00;5.77;;;12.40;99.90;;;;;;5137867;27;20445;-79
2021/11/10 10:58:29;;;;;;;15.87;7.20;;;12.50;99.90;;;;;;5135676;27;20476;-79
2021/11/10 11:00:56;;;;;;;13.80;5.80;;;12.70;99.90;;;;;;5136882;27;20448;-79
2021/11/10 11:03:30;;;;;;;11.37;5.50;;;13.30;99.90;;;;;;5131381;27;20448;-80
2021/11/10 11:06:00;;;;;;;11.57;5.77;;;13.80;99.90;;;;;;5129731;27;20475;-79
2021/11/10 11:08:42;;;;;;;13.17;6.90;;;14.60;99.90;;;;;;5129568;27;21218;-80
2021/11/10 11:11:33;;;;;;;14.60;5.40;;;15.10;99.90;;;;;;5126677;27;20937;-80
2021/11/10 11:14:00;;;;;;;10.07;4.90;;;15.20;99.90;;;;;;5136067;27;20471;-80
2021/11/10 11:16:37;;;;;;;12.83;5.47;;;15.20;99.90;;;;;;5130740;27;20491;-80
2021/11/10 11:19:16;;;;;;;10.33;5.20;;;15.50;99.90;;;;;;5133462;27;20484;-80
2021/11/10 11:21:54;;;;;;;11.23;5.20;;;15.10;99.90;;;;;;5133266;27;20481;-79
2021/11/10 11:24:30;;;;;;;15.80;5.07;;;15.60;99.90;;;;;;5132497;27;20464;-80
2021/11/10 11:27:10;;;;;;;13.77;5.00;;;16.20;99.90;;;;;;5131584;27;20458;-79
2021/11/10 11:29:37;;;;;;;11.90;5.17;;;16.30;99.90;;;;;;5133806;27;20448;-82
2021/11/10 11:32:19;;;;;;;11.60;4.63;;;16.10;99.90;;;;;;5135382;27;20441;-80
2021/11/10 11:34:54;;;;;;;10.07;4.80;;;16.00;99.90;;;;;;5131474;27;20446;-81
2021/11/10 11:37:22;;;;;;;12.20;5.10;;;16.10;99.90;;;;;;5135405;27;20473;-80
2021/11/10 11:39:49;;;;;;;11.33;4.40;;;16.10;99.90;;;;;;5132716;27;20452;-80
2021/11/10 11:42:18;;;;;;;9.13;4.37;;;16.30;99.90;;;;;;5135803;27;20454;-81
2021/11/10 11:44:46;;;;;;;11.33;5.17;;;16.50;99.90;;;;;;5133689;27;20452;-80
2021/11/10 11:47:13;;;;;;;10.80;4.47;;;16.50;99.90;;;;;;5123848;27;20510;-80
2021/11/10 11:49:41;;;;;;;11.90;5.67;;;16.60;99.90;;;;;;5133894;27;20440;-80
2021/11/10 11:52:10;;;;;;;12.70;5.10;;;16.60;99.90;;;;;;5140245;27;20447;-81
2021/11/10 11:54:42;;;;;;;15.97;5.10;;;16.70;99.90;;;;;;5128060;27;20453;-80
2021/11/10 11:57:11;;;;;;;11.67;5.33;;;16.90;99.90;;;;;;5131099;28;20482;-79
2021/11/10 11:59:42;;;;;;;11.77;5.60;;;16.90;99.90;;;;;;5135810;28;20443;-80
2021/11/10 12:02:27;;;;;;;13.33;5.93;;;16.60;99.90;;;;;;5137075;28;20819;-78
2021/11/10 12:04:55;;;;;;;9.30;4.90;;;16.30;99.90;;;;;;5130689;28;20455;-80
2021/11/10 12:07:46;;;;;;;13.17;5.40;;;16.10;99.90;;;;;;5132719;28;21128;-80
2021/11/10 12:10:36;;;;;;;12.57;5.77;;;15.70;99.90;;;;;;5132386;28;20479;-81
2021/11/10 12:13:27;;;;;;;11.97;4.10;;;15.70;99.90;;;;;;5123429;28;20474;-78
2021/11/10 12:16:19;;;;;;;12.50;4.90;;;16.00;99.90;;;;;;5114648;28;20452;-79
2021/11/10 12:18:55;;;;;;;13.40;5.33;;;15.90;99.90;;;;;;5139386;28;20563;-80
2021/11/10 12:21:30;;;;;;;12.67;4.90;;;15.50;99.90;;;;;;5133241;28;20441;-80
2021/11/10 12:24:10;;;;;;;13.33;4.67;;;14.70;99.90;;;;;;5136668;28;20453;-80
2021/11/10 12:27:12;;;;;;;16.73;5.03;;;14.80;99.90;;;;;;5129012;28;20442;-81
2021/11/10 12:29:57;;;;;;;13.00;4.70;;;14.60;99.90;;;;;;5128815;28;20459;-81
2021/11/10 12:32:42;;;;;;;11.83;4.50;;;14.50;99.90;;;;;;5130673;28;20464;-80
2021/11/10 12:35:18;;;;;;;11.60;5.10;;;14.20;99.90;;;;;;5129255;28;20538;-80
2021/11/10 12:37:49;;;;;;;10.30;4.13;;;14.00;99.90;;;;;;5112426;28;20470;-80
2021/11/10 12:40:18;;;;;;;12.63;5.07;;;13.90;99.90;;;;;;5093410;28;20445;-80
2021/11/10 12:42:51;;;;;;;12.83;5.23;;;13.90;99.90;;;;;;5119517;28;20499;-80
2021/11/10 12:45:27;;;;;;;10.43;4.93;;;13.50;99.90;;;;;;5127006;28;20449;-79
2021/11/10 12:47:57;;;;;;;11.23;4.10;;;13.40;99.90;;;;;;5125945;28;20560;-81
2021/11/10 12:50:36;;;;;;;12.83;4.57;;;13.50;99.90;;;;;;5122260;28;21009;-80
2021/11/10 12:53:07;;;;;;;11.03;5.13;;;13.50;99.90;;;;;;5132853;28;20482;-80
2021/11/10 12:55:36;;;;;;;11.63;5.00;;;14.00;99.90;;;;;;5129095;28;20444;-81
2021/11/10 12:58:17;;;;;;;13.60;4.73;;;14.30;99.90;;;;;;5132206;28;20562;-81
2021/11/10 13:00:45;;;;;;;9.20;4.67;;;14.60;99.90;;;;;;5131078;27;20450;-79